Time;durP1;ratioP1;P1;durP2;ratioP2;P2;SDS_P1;SDS_P2;PMS_P1;PMS_P2;Temp;Humidity;BMP_temperature;BMP_pressure;BME280_temperature;BME280_humidity;BME280_pressure;Samples;Min_cycle;Max_cycle;Signal;HPM_P1;HPM_P2
2023/04/26 00:00:13;;;;;;;2.25;1.80;;;;;;;12.39;100.00;-23522.09;5031502;28;20527;-71
2023/04/26 00:02:38;;;;;;;2.08;1.80;;;;;;;12.20;100.00;-23836.31;5032036;28;20548;-70
2023/04/26 00:05:06;;;;;;;1.80;1.52;;;;;;;12.51;100.00;-23844.72;5031979;28;20179;-71
2023/04/26 00:07:31;;;;;;;1.70;1.60;;;;;;;12.46;100.00;-23843.50;5032309;28;20172;-71
2023/04/26 00:09:57;;;;;;;1.90;1.70;;;;;;;12.37;100.00;-23841.00;5031823;28;20292;-71
2023/04/26 00:12:22;;;;;;;2.20;1.85;;;;;;;12.31;100.00;-23839.34;5032066;28;20172;-70
2023/04/26 00:14:48;;;;;;;3.00;1.95;;;;;;;12.32;100.00;-23839.75;5030379;28;20179;-71
2023/04/26 00:17:13;;;;;;;1.75;1.63;;;;;;;12.15;100.00;-23834.94;5031541;28;20170;-71
2023/04/26 00:19:39;;;;;;;2.45;1.90;;;;;;;12.14;100.00;-23515.19;5040575;28;20760;-70
2023/04/26 00:22:04;;;;;;;2.17;1.50;;;;;;;12.16;100.00;-23515.75;5032196;28;20254;-70
2023/04/26 00:24:31;;;;;;;2.33;1.85;;;;;;;12.07;100.00;-23832.84;5031461;28;20638;-71
2023/04/26 00:26:56;;;;;;;2.72;1.85;;;;;;;12.01;100.00;-23831.06;5030750;28;20174;-72
2023/04/26 00:29:22;;;;;;;1.90;1.70;;;;;;;12.34;100.00;-24159.72;5031577;28;20171;-70
2023/04/26 00:31:48;;;;;;;2.83;1.60;;;;;;;12.20;100.00;-24155.78;5031473;28;20254;-71
2023/04/26 00:34:13;;;;;;;2.05;1.55;;;;;;;11.92;100.00;-24148.03;5031882;28;20262;-71
2023/04/26 00:36:38;;;;;;;2.10;1.70;;;;;;;12.25;100.00;-24157.31;5031447;28;20183;-71
2023/04/26 00:39:04;;;;;;;2.25;1.77;;;;;;;11.99;100.00;-24150.00;5030254;28;20231;-70
2023/04/26 00:41:29;;;;;;;1.95;1.73;;;;;;;12.37;100.00;-24160.56;5031554;28;20176;-71
2023/04/26 00:43:54;;;;;;;2.20;1.80;;;;;;;12.16;100.00;-24154.66;5031540;28;20607;-70
2023/04/26 00:46:21;;;;;;;2.17;1.70;;;;;;;12.42;100.00;-23842.25;5031429;28;20175;-70
2023/04/26 00:48:47;;;;;;;2.38;1.83;;;;;;;12.39;100.00;-23841.69;5030562;28;20167;-70
2023/04/26 00:51:13;;;;;;;2.13;1.60;;;;;;;12.08;100.00;-23833.00;5031111;28;20170;-70
2023/04/26 00:53:39;;;;;;;2.25;1.98;;;;;;;12.39;100.00;-23841.69;5031540;28;20179;-70
2023/04/26 00:56:09;;;;;;;2.13;1.63;;;;;;;12.29;100.00;-23519.25;5031413;28;20170;-70
2023/04/26 00:58:36;;;;;;;2.72;1.70;;;;;;;12.36;100.00;-22882.03;5029410;28;20277;-71
2023/04/26 01:01:01;;;;;;;2.97;1.77;;;;;;;12.18;100.00;-20639.63;5031460;28;20182;-70
2023/04/26 01:03:27;;;;;;;2.17;1.88;;;;;;;12.26;100.00;-21920.47;5031347;28;20575;-70
2023/04/26 01:05:53;;;;;;;2.63;1.88;;;;;;;12.04;100.00;-22554.19;5032428;28;20181;-70
2023/04/26 01:08:19;;;;;;;2.60;1.77;;;;;;;11.79;100.00;-22228.41;5035143;28;20551;-70
2023/04/26 01:10:47;;;;;;;1.98;1.60;;;;;;;12.11;100.00;-22555.84;5034663;28;20203;-71
2023/04/26 01:13:13;;;;;;;1.98;1.63;;;;;;;11.79;100.00;-21589.50;5034769;28;20172;-70
2023/04/26 01:15:44;;;;;;;1.98;1.77;;;;;;;11.77;100.00;-21269.53;5035342;28;20266;-71
2023/04/26 01:18:10;;;;;;;1.73;1.63;;;;;;;11.89;100.00;-19674.19;5035690;28;20207;-71
2023/04/26 01:20:35;;;;;;;2.28;1.83;;;;;;;12.06;100.00;-17758.16;5041802;28;20198;-70
2023/04/26 01:23:01;;;;;;;1.52;1.42;;;;;;;11.97;100.00;-17436.59;5035198;28;20179;-71
2023/04/26 01:25:27;;;;;;;1.92;1.50;;;;;;;11.94;100.00;-17756.03;5034706;28;20183;-71
2023/04/26 01:27:52;;;;;;;2.38;1.45;;;;;;;11.80;100.00;-17433.66;5033363;28;20191;-71
2023/04/26 01:30:17;;;;;;;1.92;1.67;;;;;;;11.87;100.00;-18714.47;5034284;28;20191;-72
2023/04/26 01:32:43;;;;;;;1.80;1.30;;;;;;;11.68;100.00;-19030.41;5034307;28;20182;-70
2023/04/26 01:35:08;;;;;;;1.50;1.40;;;;;;;11.88;100.00;-18714.56;5034421;28;20190;-71
2023/04/26 01:37:34;;;;;;;1.88;1.50;;;;;;;11.79;100.00;-19352.31;5034756;28;20171;-71
2023/04/26 01:39:59;;;;;;;1.98;1.52;;;;;;;11.64;100.00;-19349.25;5034535;28;20207;-71
2023/04/26 01:42:25;;;;;;;1.33;1.20;;;;;;;11.39;100.00;-19344.38;5034095;28;20177;-71
2023/04/26 01:44:50;;;;;;;1.45;1.35;;;;;;;11.51;100.00;-20305.38;5034745;28;20168;-71
2023/04/26 01:47:16;;;;;;;1.60;1.50;;;;;;;11.51;100.00;-21263.66;5032805;28;20183;-72
2023/04/26 01:49:41;;;;;;;1.48;1.38;;;;;;;11.46;100.00;-21581.69;5034099;28;20225;-71
2023/04/26 01:52:07;;;;;;;1.90;1.73;;;;;;;11.62;100.00;-20946.66;5034351;28;20179;-71
2023/04/26 01:54:32;;;;;;;1.92;1.50;;;;;;;11.51;100.00;-20944.25;5034205;28;20163;-71
2023/04/26 01:56:58;;;;;;;2.08;1.70;;;;;;;11.23;100.00;-20299.25;5033825;28;20187;-71
2023/04/26 01:59:23;;;;;;;1.70;1.60;;;;;;;11.55;100.00;-19667.00;5034904;28;20231;-71
2023/04/26 02:01:49;;;;;;;1.95;1.60;;;;;;;11.28;100.00;-19342.03;5034041;28;20225;-71
2023/04/26 02:04:14;;;;;;;1.60;1.50;;;;;;;11.32;100.00;-19981.81;5033937;28;20262;-71
2023/04/26 02:06:41;;;;;;;1.80;1.67;;;;;;;11.02;100.00;-20294.63;5033902;28;20171;-71
2023/04/26 02:09:08;;;;;;;1.58;1.48;;;;;;;11.10;100.00;-19019.09;5033699;28;20187;-70
2023/04/26 02:11:33;;;;;;;1.55;1.40;;;;;;;11.46;100.00;-18067.31;5033637;28;20262;-71
2023/04/26 02:13:59;;;;;;;1.60;1.50;;;;;;;11.39;100.00;-18385.72;5033971;28;20262;-70
2023/04/26 02:16:25;;;;;;;3.63;1.70;;;;;;;11.07;100.00;-18379.72;5032434;28;20643;-71
2023/04/26 02:18:52;;;;;;;1.95;1.75;;;;;;;11.16;100.00;-17103.16;5041616;28;20206;-71
2023/04/26 02:21:18;;;;;;;1.50;1.40;;;;;;;11.19;100.00;-17103.75;5033495;28;20175;-71
2023/04/26 02:23:44;;;;;;;1.50;1.40;;;;;;;11.15;100.00;-15504.69;5033582;28;20168;-71
2023/04/26 02:26:10;;;;;;;1.40;1.30;;;;;;;11.21;100.00;-15185.75;5033353;28;20640;-71
2023/04/26 02:28:36;;;;;;;1.90;1.70;;;;;;;11.05;100.00;-14544.09;5033514;28;20182;-70
2023/04/26 02:31:02;;;;;;;4.68;1.70;;;;;;;11.17;100.00;-11345.38;5033578;28;20266;-71
2023/04/26 02:33:27;;;;;;;1.58;1.48;;;;;;;11.29;100.00;-12946.97;5033733;28;20185;-71
2023/04/26 02:35:52;;;;;;;2.00;1.52;;;;;;;11.60;100.00;-10707.59;5031861;28;20203;-71
2023/04/26 02:38:18;;;;;;;1.73;1.63;;;;;;;11.32;100.00;-12307.06;5031949;28;20203;-72
2023/04/26 02:40:44;;;;;;;2.97;1.55;;;;;;;11.51;100.00;-14229.72;5032604;28;20262;-71
2023/04/26 02:43:10;;;;;;;1.83;1.63;;;;;;;11.37;100.00;-16147.41;5032868;28;20605;-70
2023/04/26 02:45:44;;;;;;;1.52;1.42;;;;;;;11.34;100.00;-16786.47;5032842;28;20262;-70
2023/04/26 02:48:09;;;;;;;2.38;1.75;;;;;;;11.27;100.00;-18063.94;5032721;28;20215;-71
2023/04/26 02:50:35;;;;;;;2.42;1.98;;;;;;;11.37;100.00;-19024.47;5031324;28;20663;-71
2023/04/26 02:53:02;;;;;;;2.50;1.83;;;;;;;11.14;100.00;-19658.66;5032657;28;20174;-71
2023/04/26 02:55:28;;;;;;;2.42;1.95;;;;;;;11.10;100.00;-19977.13;5031640;28;20175;-70
2023/04/26 02:57:53;;;;;;;2.17;1.83;;;;;;;10.93;100.00;-19973.59;5032436;28;20381;-71
2023/04/26 03:00:18;;;;;;;2.40;1.85;;;;;;;11.20;100.00;-20298.59;5032663;28;20278;-71
2023/04/26 03:02:44;;;;;;;2.50;1.90;;;;;;;11.33;100.00;-20620.78;5032224;28;20622;-70
2023/04/26 03:05:10;;;;;;;2.17;1.85;;;;;;;11.33;100.00;-20301.31;5031660;28;20250;-72
2023/04/26 03:07:36;;;;;;;2.65;1.95;;;;;;;11.23;100.00;-20618.56;5031073;28;20179;-71
2023/04/26 03:10:01;;;;;;;2.10;1.90;;;;;;;10.90;100.00;-20930.25;5032105;28;20186;-70
2023/04/26 03:12:27;;;;;;;2.05;1.85;;;;;;;10.74;100.00;-21245.66;5032902;28;20167;-70
2023/04/26 03:14:52;;;;;;;1.92;1.73;;;;;;;11.07;100.00;-21253.31;5032477;28;20186;-70
2023/04/26 03:17:18;;;;;;;3.17;2.10;;;;;;;11.19;100.00;-21575.31;5032528;28;20167;-70
2023/04/26 03:19:43;;;;;;;3.55;2.20;;;;;;;11.25;100.00;-21576.66;5040701;28;20210;-72
2023/04/26 03:22:10;;;;;;;2.55;1.95;;;;;;;10.80;100.00;-21565.97;5031668;28;20183;-70
2023/04/26 03:24:35;;;;;;;3.47;2.00;;;;;;;10.77;100.00;-21565.25;5032324;28;20206;-71
2023/04/26 03:27:01;;;;;;;5.82;2.17;;;;;;;10.90;100.00;-21249.44;5032718;28;20215;-71
2023/04/26 03:29:26;;;;;;;3.15;1.88;;;;;;;10.68;100.00;-21244.25;5031856;28;20179;-71
2023/04/26 03:31:51;;;;;;;2.70;2.03;;;;;;;10.60;100.00;-21561.38;5032186;28;20210;-71
2023/04/26 03:34:17;;;;;;;2.95;2.00;;;;;;;10.66;100.00;-21562.59;5032315;28;20252;-71
2023/04/26 03:36:42;;;;;;;5.10;2.30;;;;;;;10.66;100.00;-21562.72;5031965;28;20163;-71
2023/04/26 03:39:08;;;;;;;4.78;2.50;;;;;;;10.57;100.00;-21879.38;5031210;28;20583;-71
2023/04/26 03:41:35;;;;;;;2.72;2.03;;;;;;;10.74;100.00;-22202.47;5030650;28;20160;-71
2023/04/26 03:44:01;;;;;;;3.65;2.58;;;;;;;10.55;100.00;-22197.69;5030879;28;20205;-70
2023/04/26 03:46:26;;;;;;;2.42;2.22;;;;;;;10.84;100.00;-22204.84;5030939;28;20175;-70
2023/04/26 03:48:52;;;;;;;2.80;2.13;;;;;;;10.54;100.00;-22516.34;5031163;28;20333;-71
2023/04/26 03:51:17;;;;;;;2.75;2.35;;;;;;;10.71;100.00;-22201.72;5026822;28;20180;-72
2023/04/26 03:53:45;;;;;;;2.30;2.00;;;;;;;10.55;100.00;-22516.59;5031439;28;20183;-71
2023/04/26 03:56:11;;;;;;;3.33;2.40;;;;;;;10.60;100.00;-22836.63;5031355;28;20171;-71
2023/04/26 03:58:36;;;;;;;3.00;2.17;;;;;;;10.59;100.00;-22836.25;5031445;28;20230;-71
2023/04/26 04:01:02;;;;;;;2.63;2.10;;;;;;;10.85;100.00;-22205.09;5031448;28;20630;-72
2023/04/26 04:03:29;;;;;;;2.38;1.98;;;;;;;10.41;100.00;-21875.47;5031565;28;20179;-71
2023/04/26 04:05:55;;;;;;;2.10;1.90;;;;;;;10.92;100.00;-21887.97;5030836;28;20225;-71
2023/04/26 04:08:20;;;;;;;2.10;1.90;;;;;;;11.00;100.00;-21570.88;5030658;28;20187;-71
2023/04/26 04:10:45;;;;;;;2.10;1.90;;;;;;;10.74;100.00;-21564.50;5030965;28;20202;-72
2023/04/26 04:13:11;;;;;;;2.20;1.73;;;;;;;11.05;100.00;-20933.69;5031206;28;20223;-72
2023/04/26 04:15:36;;;;;;;3.83;2.40;;;;;;;10.70;100.00;-20925.66;5031229;28;20237;-72
2023/04/26 04:18:02;;;;;;;4.80;2.63;;;;;;;10.43;100.00;-21557.31;5039022;28;20183;-71
2023/04/26 04:20:28;;;;;;;2.65;2.28;;;;;;;10.49;100.00;-21239.91;5031055;28;20190;-71
2023/04/26 04:22:54;;;;;;;3.97;2.70;;;;;;;10.94;100.00;-21250.25;5030831;28;20175;-69
2023/04/26 04:25:21;;;;;;;2.38;2.17;;;;;;;11.12;100.00;-20935.28;5030953;28;20174;-70
2023/04/26 04:27:47;;;;;;;3.30;2.22;;;;;;;11.07;100.00;-21253.44;5030758;28;20171;-70
2023/04/26 04:30:13;;;;;;;2.25;2.03;;;;;;;11.16;100.00;-20297.59;5030737;28;20317;-70
2023/04/26 04:32:39;;;;;;;3.42;2.20;;;;;;;11.05;100.00;-19976.16;5030991;28;20603;-69
2023/04/26 04:35:06;;;;;;;3.17;2.08;;;;;;;10.97;100.00;-19974.34;5030521;28;20175;-69
2023/04/26 04:37:34;;;;;;;3.13;2.30;;;;;;;11.40;100.00;-19344.47;5030479;28;20183;-70
2023/04/26 04:39:59;;;;;;;3.17;2.40;;;;;;;11.14;100.00;-19019.81;5031295;28;20662;-72
2023/04/26 04:42:27;;;;;;;3.53;2.38;;;;;;;11.83;100.00;-16474.38;5034781;28;20179;-64
2023/04/26 04:44:53;;;;;;;4.20;2.50;;;;;;;12.51;100.00;-12958.88;5033595;28;20180;-66
2023/04/26 04:47:18;;;;;;;2.80;2.00;;;;;;;12.20;100.00;-11673.38;5034623;28;20171;-67
2023/04/26 04:49:44;;;;;;;3.80;2.45;;;;;;;12.46;100.00;-13599.72;5034883;28;20310;-65
2023/04/26 04:52:09;;;;;;;2.65;1.92;;;;;;;12.61;100.00;-14242.63;5034222;28;20181;-65
2023/04/26 04:54:35;;;;;;;3.35;2.53;;;;;;;13.10;100.00;-10395.44;5034303;28;20174;-66
2023/04/26 04:57:00;;;;;;;2.95;2.35;;;;;;;13.25;100.00;-5250.56;5034483;28;20187;-66
2023/04/26 04:59:26;;;;;;;4.18;2.35;;;;;;;13.69;100.00;-8146.81;5034544;28;20229;-68
2023/04/26 05:01:51;;;;;;;4.32;2.50;;;;;;;13.84;100.00;-8790.78;5034459;28;20257;-66
2023/04/26 05:04:16;;;;;;;3.97;2.47;;;;;;;14.26;100.00;-5247.66;5034230;28;20171;-66
2023/04/26 05:06:42;;;;;;;4.28;2.88;;;;;;;14.04;100.00;-2023.97;5034368;28;20760;-63
2023/04/26 05:09:08;;;;;;;3.92;2.47;;;;;;;13.91;100.00;-5893.00;5034402;28;20611;-64
2023/04/26 05:11:33;;;;;;;3.03;2.00;;;;;;;14.32;100.00;-2667.16;5034302;28;20638;-64
2023/04/26 05:13:59;;;;;;;3.13;2.22;;;;;;;14.00;100.00;1525.88;5033751;28;20180;-64
2023/04/26 05:16:25;;;;;;;6.25;2.30;;;;;;;14.23;100.00;-85.81;5034484;28;20542;-63
2023/04/26 05:18:50;;;;;;;5.78;2.42;;;;;;;14.48;100.00;-3956.75;5036387;28;20749;-65
2023/04/26 05:21:15;;;;;;;5.18;2.53;;;;;;;14.45;100.00;-3956.91;5034243;28;20704;-64
2023/04/26 05:23:41;;;;;;;4.03;2.40;;;;;;;14.62;100.00;-2987.84;5034346;28;20229;-64
2023/04/26 05:26:07;;;;;;;4.45;2.65;;;;;;;14.97;100.00;-1047.06;5033973;28;20245;-65
2023/04/26 05:28:33;;;;;;;4.35;2.47;;;;;;;14.89;100.00;11578.41;5034015;28;20226;-65
2023/04/26 05:31:00;;;;;;;3.08;2.22;;;;;;;15.23;100.00;17435.91;5034014;28;20171;-65
2023/04/26 05:33:27;;;;;;;3.88;2.47;;;;;;;15.31;100.00;21668.81;5033704;28;20270;-65
2023/04/26 05:35:53;;;;;;;2.28;1.63;;;;;;;15.28;100.00;29816.50;5033992;28;20634;-64
2023/04/26 05:38:19;;;;;;;2.40;1.77;;;;;;;14.73;100.00;39007.97;5034041;28;20249;-66
2023/04/26 05:40:44;;;;;;;2.45;1.98;;;;;;;15.28;100.00;32428.44;5033873;28;20615;-64
2023/04/26 05:43:10;;;;;;;2.38;1.90;;;;;;;15.46;100.00;30806.94;5033627;28;20258;-65
2023/04/26 05:45:35;;;;;;;2.67;1.67;;;;;;;15.43;100.00;49513.31;5033698;28;20175;-66
2023/04/26 05:48:00;;;;;;;3.83;2.28;;;;;;;15.68;100.00;43477.72;5034030;28;20259;-66
2023/04/26 05:50:26;;;;;;;2.95;1.80;;;;;;;15.65;100.00;51826.34;5033392;28;20647;-65
2023/04/26 05:52:51;;;;;;;2.65;1.90;;;;;;;15.76;100.00;54550.47;5033039;28;20237;-63
2023/04/26 05:55:18;;;;;;;2.92;1.80;;;;;;;15.91;100.00;52868.66;5033458;28;20167;-66
2023/04/26 05:57:44;;;;;;;3.08;2.22;;;;;;;15.82;100.00;54170.47;5033414;28;20230;-64
2023/04/26 06:00:11;;;;;;;2.80;1.85;;;;;;;15.58;100.00;52558.66;5033252;28;20203;-66
2023/04/26 06:02:36;;;;;;;2.85;2.05;;;;;;;16.03;100.00;54420.06;5033284;28;20187;-67
2023/04/26 06:05:03;;;;;;;2.35;1.77;;;;;;;16.60;100.00;56401.28;5033062;28;20270;-63
2023/04/26 06:07:29;;;;;;;2.40;1.90;;;;;;;16.75;100.00;55641.72;5032864;28;20570;-66
2023/04/26 06:09:55;;;;;;;2.45;1.77;;;;;;;16.96;100.00;57263.25;5032191;28;20176;-65
2023/04/26 06:12:20;;;;;;;3.60;1.70;;;;;;;16.61;100.00;57808.84;5031413;28;20495;-66
2023/04/26 06:14:46;;;;;;;2.17;1.80;;;;;;;16.66;100.00;57453.47;5033436;28;20175;-64
2023/04/26 06:17:11;;;;;;;2.20;1.70;;;;;;;16.63;100.00;56306.59;5036171;28;20191;-64
2023/04/26 06:19:36;;;;;;;2.67;1.83;;;;;;;16.32;100.00;57561.97;5033048;28;20191;-63
2023/04/26 06:22:02;;;;;;;2.50;1.85;;;;;;;16.38;100.00;57912.44;5033201;28;20520;-65
2023/04/26 06:24:27;;;;;;;3.10;2.00;;;;;;;16.36;100.00;58420.84;5033119;28;20190;-64
2023/04/26 06:26:53;;;;;;;2.17;1.77;;;;;;;16.56;100.00;58841.91;5032047;28;20211;-65
2023/04/26 06:29:19;;;;;;;2.33;1.90;;;;;;;16.49;100.00;58571.47;5031792;28;20197;-65
2023/04/26 06:31:45;;;;;;;2.80;1.95;;;;;;;16.57;100.00;59031.13;5031786;28;20643;-63
2023/04/26 06:34:10;;;;;;;2.50;2.00;;;;;;;16.87;100.00;58400.22;5030677;28;20259;-63
2023/04/26 06:36:36;;;;;;;2.50;1.90;;;;;;;16.90;100.00;58592.19;5032667;28;20217;-67
2023/04/26 06:39:01;;;;;;;2.58;1.98;;;;;;;16.93;100.00;58169.47;5031370;28;20201;-66
2023/04/26 06:41:27;;;;;;;3.25;2.10;;;;;;;16.74;100.00;59020.81;5032547;28;20563;-65
2023/04/26 06:43:52;;;;;;;2.17;1.90;;;;;;;16.75;100.00;58887.84;5031448;28;20262;-66
2023/04/26 06:46:18;;;;;;;2.50;1.77;;;;;;;16.40;100.00;59045.53;5049109;28;20192;-65
2023/04/26 06:48:43;;;;;;;3.20;2.15;;;;;;;16.73;100.00;58476.38;5029038;28;20579;-66
2023/04/26 06:51:08;;;;;;;4.18;2.40;;;;;;;16.80;100.00;58153.44;5032464;28;20179;-65
2023/04/26 06:53:35;;;;;;;3.33;2.35;;;;;;;16.71;100.00;58322.13;5032087;28;20183;-65
2023/04/26 06:56:01;;;;;;;2.97;2.00;;;;;;;16.38;100.00;57945.91;5030848;28;20623;-63
2023/04/26 06:58:26;;;;;;;2.75;1.80;;;;;;;16.36;100.00;55822.69;5031479;28;20222;-65
2023/04/26 07:00:51;;;;;;;3.45;2.42;;;;;;;16.32;100.00;56794.16;5032098;28;20313;-64
2023/04/26 07:03:17;;;;;;;3.00;2.13;;;;;;;17.17;100.00;57965.81;5030826;28;20266;-67
2023/04/26 07:05:42;;;;;;;3.47;2.33;;;;;;;17.05;100.00;57063.47;5032277;28;20164;-66
2023/04/26 07:08:08;;;;;;;4.13;2.70;;;;;;;17.10;100.00;58178.03;5032097;28;20630;-66
2023/04/26 07:10:33;;;;;;;3.60;2.50;;;;;;;16.84;100.00;59240.03;5032468;28;20167;-67
2023/04/26 07:12:59;;;;;;;3.95;2.40;;;;;;;16.92;100.00;59140.50;5032199;28;20171;-65
2023/04/26 07:15:24;;;;;;;4.55;2.58;;;;;;;17.21;100.00;59719.22;5032134;28;20201;-64
2023/04/26 07:17:50;;;;;;;3.03;2.03;;;;;;;17.14;100.00;60077.94;5035272;28;20210;-64
2023/04/26 07:20:19;;;;;;;4.20;2.60;;;;;;;17.07;100.00;59890.09;5032507;28;20385;-63
2023/04/26 07:22:45;;;;;;;4.07;2.80;;;;;;;17.04;100.00;59837.78;5032296;28;20181;-66
2023/04/26 07:25:10;;;;;;;4.22;2.60;;;;;;;17.19;100.00;60192.41;5032164;28;20175;-67
2023/04/26 07:27:36;;;;;;;3.83;2.88;;;;;;;17.36;100.00;60104.91;5032262;28;20707;-65
2023/04/26 07:30:02;;;;;;;4.13;2.63;;;;;;;17.37;100.00;60087.41;5032093;28;20262;-66
2023/04/26 07:32:27;;;;;;;3.95;2.35;;;;;;;17.04;100.00;60469.34;5031730;28;20302;-65
2023/04/26 07:34:53;;;;;;;3.88;2.70;;;;;;;17.56;100.00;60462.81;5032040;28;20163;-66
2023/04/26 07:37:18;;;;;;;3.97;2.70;;;;;;;17.55;100.00;60722.53;5032016;28;20178;-66
2023/04/26 07:39:44;;;;;;;3.70;2.65;;;;;;;17.88;100.00;60805.47;5030129;28;20229;-66
2023/04/26 07:42:09;;;;;;;3.45;2.45;;;;;;;17.72;100.00;60743.63;5031789;28;20175;-64
2023/04/26 07:44:34;;;;;;;3.50;2.03;;;;;;;17.41;100.00;60846.31;5031889;28;20229;-63
2023/04/26 07:47:00;;;;;;;3.75;2.53;;;;;;;17.52;100.00;60865.84;5031832;28;20190;-66
2023/04/26 07:49:25;;;;;;;3.10;2.20;;;;;;;17.99;100.00;60931.50;5031880;28;20262;-66
2023/04/26 07:51:51;;;;;;;4.53;1.95;;;;;;;18.23;100.00;60903.59;5031903;28;20178;-67
2023/04/26 07:54:16;;;;;;;3.63;2.25;;;;;;;18.02;100.00;60942.66;5031642;28;20199;-67
2023/04/26 07:56:42;;;;;;;2.80;1.80;;;;;;;18.11;100.00;61006.47;5032029;28;20178;-65
2023/04/26 07:59:07;;;;;;;3.88;2.40;;;;;;;18.71;100.00;61057.88;5031305;28;20227;-64
2023/04/26 08:01:33;;;;;;;5.45;2.15;;;;;;;18.44;100.00;61190.47;5031209;28;20167;-65
2023/04/26 08:03:58;;;;;;;3.17;2.22;;;;;;;18.51;100.00;61136.81;5030422;28;20190;-66
2023/04/26 08:06:24;;;;;;;3.25;2.35;;;;;;;18.70;100.00;61095.00;5031678;28;20250;-67
2023/04/26 08:08:51;;;;;;;4.32;2.72;;;;;;;19.01;99.36;61272.28;5031808;28;20202;-66
2023/04/26 08:11:17;;;;;;;4.47;2.33;;;;;;;19.50;96.67;61301.13;5031596;28;20229;-65
2023/04/26 08:13:45;;;;;;;3.20;2.35;;;;;;;19.75;91.11;61440.22;5031627;28;20171;-67
2023/04/26 08:16:11;;;;;;;4.15;2.60;;;;;;;19.70;92.83;61404.03;5034954;28;20171;-67
2023/04/26 08:18:36;;;;;;;3.92;2.50;;;;;;;19.65;93.76;61431.53;5039120;28;20199;-64
2023/04/26 08:21:02;;;;;;;3.35;2.13;;;;;;;19.74;88.18;61498.75;5036044;28;20159;-66
2023/04/26 08:23:28;;;;;;;2.60;2.15;;;;;;;19.59;89.52;61505.09;5035827;28;20182;-67
2023/04/26 08:25:54;;;;;;;3.67;2.60;;;;;;;19.23;85.95;61514.13;5035788;28;20262;-67
2023/04/26 08:28:20;;;;;;;3.95;2.60;;;;;;;19.32;86.62;61542.44;5035435;28;20270;-65
2023/04/26 08:30:45;;;;;;;3.92;2.47;;;;;;;19.61;83.04;61587.69;5035188;28;20203;-67
2023/04/26 08:33:11;;;;;;;4.22;2.50;;;;;;;19.78;86.50;61591.97;5034912;28;20646;-67
2023/04/26 08:35:36;;;;;;;3.20;2.50;;;;;;;20.13;84.34;61672.56;5035674;28;20214;-66
2023/04/26 08:38:02;;;;;;;4.10;2.50;;;;;;;20.37;86.13;61670.69;5035089;28;20186;-64
2023/04/26 08:40:27;;;;;;;3.67;2.63;;;;;;;20.51;85.72;61621.66;5034943;28;20170;-65
2023/04/26 08:42:52;;;;;;;4.43;2.70;;;;;;;20.07;85.07;61647.03;5035503;28;20191;-67
2023/04/26 08:45:21;;;;;;;3.03;2.40;;;;;;;19.76;83.52;61589.69;5034874;28;20182;-67
2023/04/26 08:47:52;;;;;;;3.92;2.83;;;;;;;19.73;80.06;61673.88;5035042;28;20167;-66
2023/04/26 08:50:22;;;;;;;2.85;2.00;;;;;;;19.77;76.22;61684.19;5035094;28;20252;-66
2023/04/26 08:52:50;;;;;;;2.72;2.10;;;;;;;19.42;81.75;61603.56;5035011;28;20178;-65
2023/04/26 08:55:18;;;;;;;3.72;2.60;;;;;;;19.56;79.01;61647.38;5035118;28;20237;-66
2023/04/26 08:57:46;;;;;;;4.25;2.40;;;;;;;19.36;81.03;61643.41;5034332;28;20253;-65
2023/04/26 09:00:13;;;;;;;4.40;2.63;;;;;;;19.81;80.88;61838.53;5034965;28;20242;-66
2023/04/26 09:02:46;;;;;;;4.03;2.30;;;;;;;20.09;81.12;61714.72;5035240;28;20209;-65
2023/04/26 09:05:11;;;;;;;4.30;2.40;;;;;;;19.89;78.12;61694.63;5034960;28;20171;-66
2023/04/26 09:07:43;;;;;;;2.75;2.35;;;;;;;20.09;75.61;61745.84;5035144;28;20163;-64
2023/04/26 09:10:10;;;;;;;3.08;2.45;;;;;;;20.22;77.77;61861.78;5034571;28;20174;-66
2023/04/26 09:12:36;;;;;;;3.17;2.40;;;;;;;19.76;75.22;61659.69;5033863;28;20184;-64
2023/04/26 09:15:09;;;;;;;3.08;2.25;;;;;;;19.96;74.64;61705.16;5034884;28;20183;-67
2023/04/26 09:17:36;;;;;;;3.33;2.53;;;;;;;20.24;75.02;61726.56;5038228;28;20168;-66
2023/04/26 09:20:23;;;;;;;3.65;2.67;;;;;;;20.01;77.09;61749.75;5034388;28;20215;-66
2023/04/26 09:22:50;;;;;;;3.38;2.70;;;;;;;20.03;76.59;61728.66;5034498;28;20199;-64
2023/04/26 09:25:18;;;;;;;2.53;2.10;;;;;;;20.33;75.45;61771.97;5034521;28;20258;-67
2023/04/26 09:27:45;;;;;;;3.17;2.60;;;;;;;20.33;76.00;61735.66;5033804;28;20646;-65
2023/04/26 09:30:19;;;;;;;2.90;2.13;;;;;;;20.46;71.96;61729.63;5034338;28;20183;-66
2023/04/26 09:32:57;;;;;;;3.53;2.80;;;;;;;20.84;73.83;61808.56;5034829;28;20167;-64
2023/04/26 09:35:36;;;;;;;3.40;2.40;;;;;;;20.32;74.44;61781.22;5034073;28;20349;-66
2023/04/26 09:38:02;;;;;;;4.13;2.45;;;;;;;19.92;73.96;61747.31;5034184;28;20568;-65
2023/04/26 09:40:31;;;;;;;3.90;2.78;;;;;;;20.45;76.18;61783.00;5034231;28;20160;-64
2023/04/26 09:43:02;;;;;;;3.28;2.22;;;;;;;20.03;74.73;61839.63;5034311;28;20168;-65
2023/04/26 09:45:29;;;;;;;3.15;2.42;;;;;;;20.01;76.54;61726.41;5034104;28;20626;-66
2023/04/26 09:48:11;;;;;;;4.55;2.97;;;;;;;20.51;75.26;61754.06;5033797;28;20179;-64
2023/04/26 09:50:36;;;;;;;4.40;2.72;;;;;;;20.52;77.03;61754.63;5034322;28;20168;-66
2023/04/26 09:53:01;;;;;;;2.85;2.35;;;;;;;20.10;80.66;61850.19;5034193;28;20252;-66
2023/04/26 09:55:30;;;;;;;4.63;3.00;;;;;;;20.62;78.31;61768.56;5033593;28;20170;-63
2023/04/26 09:57:59;;;;;;;4.05;2.53;;;;;;;20.93;75.39;61808.97;5032601;28;20227;-65
2023/04/26 10:00:26;;;;;;;4.78;2.38;;;;;;;21.39;75.77;61899.66;5033040;28;20842;-65
2023/04/26 10:02:54;;;;;;;3.92;2.70;;;;;;;21.83;72.66;61966.75;5033743;28;20168;-66
2023/04/26 10:05:20;;;;;;;3.55;2.63;;;;;;;22.36;69.58;61982.28;5033277;28;20658;-66
2023/04/26 10:07:47;;;;;;;4.43;3.10;;;;;;;22.18;71.07;61987.84;5032512;28;20175;-66
2023/04/26 10:10:12;;;;;;;4.60;3.05;;;;;;;22.79;69.78;62091.16;5032686;28;20160;-68
2023/04/26 10:12:43;;;;;;;3.72;2.55;;;;;;;23.36;69.85;62175.81;5032939;28;20174;-67
2023/04/26 10:15:10;;;;;;;3.60;2.40;;;;;;;22.98;64.32;62101.25;5033309;28;20206;-66
2023/04/26 10:17:39;;;;;;;4.90;2.90;;;;;;;23.23;66.93;62142.75;5036405;28;20164;-66
2023/04/26 10:20:09;;;;;;;3.83;2.85;;;;;;;23.43;64.53;62178.59;5032870;28;20286;-65
2023/04/26 10:22:49;;;;;;;3.67;2.63;;;;;;;23.46;61.48;62163.78;5033013;28;20213;-64
2023/04/26 10:25:14;;;;;;;3.97;2.78;;;;;;;23.19;60.59;62292.59;5032102;28;20179;-65
2023/04/26 10:27:43;;;;;;;3.75;2.20;;;;;;;22.81;62.30;62030.91;5032810;28;20250;-64
2023/04/26 10:30:19;;;;;;;4.65;2.65;;;;;;;22.08;66.10;61984.84;5032876;28;20254;-64
2023/04/26 10:32:50;;;;;;;3.85;2.80;;;;;;;21.87;64.84;61974.47;5032903;28;20175;-66
2023/04/26 10:35:17;;;;;;;3.88;2.70;;;;;;;21.36;67.09;61906.66;5033003;28;20209;-62
2023/04/26 10:37:58;;;;;;;4.82;3.10;;;;;;;20.15;72.16;61733.94;5031947;28;20175;-65
2023/04/26 10:40:26;;;;;;;4.25;2.63;;;;;;;19.44;74.46;61692.81;5032141;28;20207;-65
2023/04/26 10:43:10;;;;;;;4.45;2.97;;;;;;;19.56;79.33;61660.34;5032629;28;20171;-65
2023/04/26 10:45:36;;;;;;;4.00;3.00;;;;;;;19.13;79.38;61629.72;5032211;28;20567;-65
2023/04/26 10:48:31;;;;;;;4.68;3.20;;;;;;;18.84;80.52;61548.78;5031383;28;20171;-64
2023/04/26 10:51:11;;;;;;;7.47;3.15;;;;;;;18.43;80.27;61574.78;5033152;28;20171;-66
2023/04/26 10:53:45;;;;;;;6.47;3.10;;;;;;;18.05;80.50;61503.84;5033156;28;20151;-66
2023/04/26 10:56:26;;;;;;;3.53;2.75;;;;;;;17.94;81.26;61488.81;5032813;28;20171;-66
2023/04/26 10:59:18;;;;;;;4.53;2.92;;;;;;;18.01;82.19;61491.56;5032689;28;20318;-64
2023/04/26 11:01:44;;;;;;;9.25;3.05;;;;;;;17.97;84.95;61520.63;5032892;28;20182;-66
2023/04/26 11:04:11;;;;;;;3.40;2.65;;;;;;;17.83;83.49;61481.53;5032641;28;20268;-65
2023/04/26 11:06:53;;;;;;;4.75;3.40;;;;;;;17.89;85.34;61519.91;5032411;28;20183;-65
2023/04/26 11:09:40;;;;;;;4.57;3.00;;;;;;;18.08;86.62;61483.97;5032308;28;20280;-66
2023/04/26 11:12:10;;;;;;;4.03;2.95;;;;;;;17.83;86.62;61451.06;5032464;28;20167;-64
2023/04/26 11:14:35;;;;;;;4.28;3.08;;;;;;;17.97;87.91;61463.75;5032540;28;20773;-66
2023/04/26 11:17:05;;;;;;;4.75;3.03;;;;;;;18.05;88.78;61501.25;5034149;28;20254;-64
2023/04/26 11:19:31;;;;;;;4.60;2.97;;;;;;;18.08;85.40;61509.81;5031852;28;20207;-64
2023/04/26 11:21:59;;;;;;;4.18;2.92;;;;;;;18.40;84.91;61551.22;5032242;28;20646;-65